createdAt,value
2023-04-20T00:00:00.058Z,8.40
2023-04-20T00:02:28.272Z,8.40
2023-04-20T00:04:56.451Z,8.40
2023-04-20T00:07:24.865Z,8.40
2023-04-20T00:09:52.817Z,8.30
2023-04-20T00:12:20.813Z,8.30
2023-04-20T00:14:48.754Z,8.30
2023-04-20T00:17:18.057Z,8.30
2023-04-20T00:19:46.294Z,8.30
2023-04-20T00:22:14.429Z,8.20
2023-04-20T00:24:42.358Z,8.20
2023-04-20T00:27:10.295Z,8.20
2023-04-20T00:29:38.370Z,8.20
2023-04-20T00:32:06.812Z,8.20
2023-04-20T00:34:36.195Z,8.20
2023-04-20T00:37:04.162Z,8.20
2023-04-20T00:39:32.174Z,8.20
2023-04-20T00:42:06.103Z,8.10
2023-04-20T00:44:34.304Z,8.10
2023-04-20T00:47:02.540Z,8.10
2023-04-20T00:49:31.693Z,8.00
2023-04-20T00:52:01.637Z,8.00
2023-04-20T00:54:30.949Z,7.90
2023-04-20T00:57:01.305Z,7.80
2023-04-20T00:59:29.486Z,7.70
2023-04-20T01:01:58.410Z,7.60
2023-04-20T01:04:26.934Z,7.50
2023-04-20T01:06:55.037Z,7.50
2023-04-20T01:09:24.432Z,7.40
2023-04-20T01:11:52.638Z,7.40
2023-04-20T01:14:20.602Z,7.30
2023-04-20T01:16:49.659Z,7.30
2023-04-20T01:19:17.752Z,7.30
2023-04-20T01:21:45.822Z,7.20
2023-04-20T01:24:15.191Z,7.20
2023-04-20T01:26:43.207Z,7.20
2023-04-20T01:29:11.240Z,7.20
2023-04-20T01:31:39.284Z,7.20
2023-04-20T01:34:07.238Z,7.10
2023-04-20T01:36:35.263Z,7.10
2023-04-20T01:39:03.330Z,7.10
2023-04-20T01:41:32.769Z,7.10
2023-04-20T01:44:00.728Z,7.10
2023-04-20T01:46:28.736Z,7.00
2023-04-20T01:48:56.746Z,7.00
2023-04-20T01:51:24.682Z,7.00
2023-04-20T01:53:52.645Z,7.00
2023-04-20T01:56:20.706Z,7.00
2023-04-20T01:58:50.041Z,7.00
2023-04-20T02:01:18.227Z,7.00
2023-04-20T02:03:46.444Z,7.00
2023-04-20T02:06:14.547Z,7.00
2023-04-20T02:08:42.639Z,6.90
2023-04-20T02:11:10.801Z,6.90
2023-04-20T02:13:38.752Z,6.90
2023-04-20T02:16:08.712Z,6.90
2023-04-20T02:18:37.378Z,6.90
2023-04-20T02:21:06.858Z,6.90
2023-04-20T02:23:35.110Z,6.90
2023-04-20T02:26:03.179Z,6.90
2023-04-20T02:28:31.168Z,6.80
2023-04-20T02:30:59.171Z,6.80
2023-04-20T02:33:28.606Z,6.80
2023-04-20T02:35:56.626Z,6.80
2023-04-20T02:38:24.783Z,6.80
2023-04-20T02:40:52.717Z,6.70
2023-04-20T02:43:21.364Z,6.80
2023-04-20T02:45:49.483Z,6.70
2023-04-20T02:48:17.426Z,6.70
2023-04-20T02:50:46.741Z,6.70
2023-04-20T02:53:14.776Z,6.70
2023-04-20T02:55:42.688Z,6.70
2023-04-20T02:58:10.719Z,6.70
2023-04-20T03:00:38.690Z,6.70
2023-04-20T03:03:06.770Z,6.70
2023-04-20T03:05:34.976Z,6.60
2023-04-20T03:08:05.637Z,6.60
2023-04-20T03:10:33.588Z,6.60
2023-04-20T03:13:01.584Z,6.60
2023-04-20T03:15:29.624Z,6.60
2023-04-20T03:17:57.705Z,6.60
2023-04-20T03:20:25.798Z,6.60
2023-04-20T03:22:53.847Z,6.60
2023-04-20T03:25:23.548Z,6.60
2023-04-20T03:27:51.527Z,6.60
2023-04-20T03:30:19.511Z,6.60
2023-04-20T03:32:48.542Z,6.60
2023-04-20T03:35:17.628Z,6.50
2023-04-20T03:37:45.765Z,6.50
2023-04-20T03:40:14.390Z,6.50
2023-04-20T03:42:43.985Z,6.50
2023-04-20T03:45:13.143Z,6.50
2023-04-20T03:47:41.579Z,6.50
2023-04-20T03:50:10.259Z,6.50
2023-04-20T03:52:38.359Z,6.40
2023-04-20T03:55:07.228Z,6.40
2023-04-20T03:57:35.586Z,6.40
2023-04-20T04:00:05.824Z,6.40
2023-04-20T04:02:36.780Z,6.40
2023-04-20T04:05:06.695Z,6.30
2023-04-20T04:07:34.805Z,6.30
2023-04-20T04:10:04.856Z,6.30
2023-04-20T04:12:33.103Z,6.30
2023-04-20T04:15:01.093Z,6.30
2023-04-20T04:17:30.470Z,6.30
2023-04-20T04:19:58.554Z,6.30
2023-04-20T04:22:27.171Z,6.20
2023-04-20T04:24:55.899Z,6.20
2023-04-20T04:27:24.743Z,6.20
2023-04-20T04:29:52.734Z,6.20
2023-04-20T04:32:20.842Z,6.10
2023-04-20T04:34:50.290Z,6.10
2023-04-20T04:37:18.302Z,6.10
2023-04-20T04:39:46.310Z,6.10
2023-04-20T04:42:14.260Z,6.10
2023-04-20T04:44:42.244Z,6.10
2023-04-20T04:47:11.740Z,6.00
2023-04-20T04:49:40.674Z,6.10
2023-04-20T04:52:10.219Z,6.00
2023-04-20T04:54:38.224Z,6.00
2023-04-20T04:57:06.216Z,6.00
2023-04-20T04:59:34.255Z,6.00
2023-04-20T05:02:02.261Z,6.00
2023-04-20T05:04:30.631Z,6.00
2023-04-20T05:06:58.747Z,6.00
2023-04-20T05:09:33.351Z,6.00
2023-04-20T05:12:02.679Z,6.00
2023-04-20T05:14:31.648Z,6.00
2023-04-20T05:16:59.767Z,6.00
2023-04-20T05:19:27.717Z,6.00
2023-04-20T05:21:55.757Z,6.10
2023-04-20T05:24:23.819Z,6.10
2023-04-20T05:26:53.159Z,6.10
2023-04-20T05:29:21.543Z,6.10
2023-04-20T05:31:49.540Z,6.10
2023-04-20T05:34:17.670Z,6.20
2023-04-20T05:36:45.957Z,6.20
2023-04-20T05:39:13.937Z,6.20
2023-04-20T05:41:41.991Z,6.20
2023-04-20T05:44:11.266Z,6.20
2023-04-20T05:46:39.206Z,6.20
2023-04-20T05:49:07.221Z,6.20
2023-04-20T05:51:35.234Z,6.20
2023-04-20T05:54:03.398Z,6.20
2023-04-20T05:56:31.414Z,6.20
2023-04-20T05:59:01.025Z,6.20
2023-04-20T06:01:30.370Z,6.20
2023-04-20T06:03:58.812Z,6.20
2023-04-20T06:06:27.870Z,6.20
2023-04-20T06:08:58.047Z,6.20
2023-04-20T06:11:26.066Z,6.20
2023-04-20T06:13:54.032Z,6.20
2023-04-20T06:16:22.048Z,6.20
2023-04-20T06:18:51.497Z,6.20
2023-04-20T06:21:20.150Z,6.20
2023-04-20T06:23:48.125Z,6.20
2023-04-20T06:26:16.108Z,6.20
2023-04-20T06:28:45.411Z,6.20
2023-04-20T06:31:13.448Z,6.20
2023-04-20T06:33:41.477Z,6.20
2023-04-20T06:36:11.106Z,6.20
2023-04-20T06:38:39.197Z,6.20
2023-04-20T06:41:07.189Z,6.20
2023-04-20T06:43:35.138Z,6.20
2023-04-20T06:46:03.161Z,6.20
2023-04-20T06:48:32.717Z,6.30
2023-04-20T06:51:03.661Z,6.30
2023-04-20T06:53:33.098Z,6.30
2023-04-20T06:56:01.180Z,6.30
2023-04-20T06:58:29.234Z,6.30
2023-04-20T07:00:57.198Z,6.30
2023-04-20T07:03:25.534Z,6.30
2023-04-20T07:05:53.671Z,6.40
2023-04-20T07:08:22.227Z,6.40
2023-04-20T07:10:51.523Z,6.50
2023-04-20T07:13:19.463Z,6.50
2023-04-20T07:15:47.509Z,6.50
2023-04-20T07:18:15.673Z,6.60
2023-04-20T07:20:43.793Z,6.60
2023-04-20T07:23:12.071Z,6.70
2023-04-20T07:25:40.064Z,6.70
2023-04-20T07:28:09.423Z,6.80
2023-04-20T07:30:37.420Z,6.80
2023-04-20T07:33:05.791Z,6.90
2023-04-20T07:35:33.859Z,6.90
2023-04-20T07:38:01.832Z,7.00
2023-04-20T07:40:30.023Z,7.00
2023-04-20T07:42:58.026Z,7.10
2023-04-20T07:45:27.601Z,7.10
2023-04-20T07:47:57.338Z,7.10
2023-04-20T07:50:25.578Z,7.20
2023-04-20T07:52:53.667Z,7.30
2023-04-20T07:55:21.929Z,7.30
2023-04-20T07:57:50.331Z,7.30
2023-04-20T08:00:19.289Z,7.30
2023-04-20T08:02:48.710Z,7.40
2023-04-20T08:05:17.024Z,7.40
2023-04-20T08:07:45.438Z,7.50
2023-04-20T08:10:13.541Z,7.60
2023-04-20T08:12:41.569Z,7.70
2023-04-20T08:15:11.096Z,7.80
2023-04-20T08:17:39.064Z,7.90
2023-04-20T08:20:10.687Z,8.00
2023-04-20T08:22:39.428Z,8.00
2023-04-20T08:25:07.746Z,8.00
2023-04-20T08:27:35.754Z,8.10
2023-04-20T08:30:04.606Z,8.10
2023-04-20T08:32:33.003Z,8.20
2023-04-20T08:35:00.987Z,8.10
2023-04-20T08:37:32.517Z,8.10
2023-04-20T08:40:01.018Z,8.10
2023-04-20T08:42:29.043Z,8.10
2023-04-20T08:44:58.390Z,8.10
2023-04-20T08:47:29.184Z,8.10
2023-04-20T08:49:57.726Z,8.10
2023-04-20T08:52:30.552Z,8.20
2023-04-20T08:54:58.629Z,8.20
2023-04-20T08:57:27.146Z,8.30
2023-04-20T08:59:55.457Z,8.40
2023-04-20T09:02:23.894Z,8.40
2023-04-20T09:05:02.532Z,8.60
2023-04-20T09:07:31.996Z,8.60
2023-04-20T09:10:03.076Z,8.70
2023-04-20T09:12:42.871Z,8.80
2023-04-20T09:15:11.809Z,9.10
2023-04-20T09:17:41.311Z,9.30
2023-04-20T09:20:11.244Z,9.40
2023-04-20T09:22:43.333Z,9.70
2023-04-20T09:25:15.505Z,9.90
2023-04-20T09:27:43.572Z,10.20
2023-04-20T09:30:12.383Z,10.20
2023-04-20T09:32:43.543Z,10.20
2023-04-20T09:35:15.101Z,10.00
2023-04-20T09:37:50.277Z,9.80
2023-04-20T09:40:21.982Z,9.60
2023-04-20T09:42:51.896Z,9.50
2023-04-20T09:45:20.359Z,9.60
2023-04-20T09:47:49.930Z,9.70
2023-04-20T09:50:26.584Z,9.80
2023-04-20T09:53:00.031Z,9.90
2023-04-20T09:55:28.423Z,10.00
2023-04-20T09:57:58.842Z,9.90
2023-04-20T10:00:27.161Z,9.90
2023-04-20T10:02:55.602Z,10.10
2023-04-20T10:05:34.711Z,10.50
2023-04-20T10:08:04.664Z,10.90
2023-04-20T10:10:32.836Z,11.30
2023-04-20T10:13:01.852Z,11.80
2023-04-20T10:15:38.929Z,11.90
2023-04-20T10:18:18.678Z,11.70
2023-04-20T10:20:47.526Z,11.70
2023-04-20T10:23:18.783Z,11.60
2023-04-20T10:25:57.335Z,11.50
2023-04-20T10:28:25.514Z,11.30
2023-04-20T10:30:54.860Z,11.30
2023-04-20T10:33:23.230Z,11.20
2023-04-20T10:35:54.853Z,10.90
2023-04-20T10:38:31.697Z,11.10
2023-04-20T10:41:07.602Z,11.50
2023-04-20T10:43:38.902Z,11.70
2023-04-20T10:46:15.296Z,11.80
2023-04-20T10:48:54.606Z,11.50
2023-04-20T10:51:23.101Z,11.30
2023-04-20T10:54:06.559Z,11.30
2023-04-20T10:56:41.983Z,11.70
2023-04-20T10:59:11.258Z,12.00
2023-04-20T11:01:39.408Z,12.00
2023-04-20T11:04:07.614Z,11.80
2023-04-20T11:06:35.790Z,11.70
2023-04-20T11:09:06.303Z,11.50
2023-04-20T11:11:37.279Z,11.30
2023-04-20T11:14:09.101Z,11.30
2023-04-20T11:16:49.572Z,11.40
2023-04-20T11:19:24.317Z,11.60
2023-04-20T11:21:52.345Z,11.60
2023-04-20T11:24:22.732Z,11.70
2023-04-20T11:26:52.726Z,11.50
2023-04-20T11:29:34.324Z,11.40
2023-04-20T11:32:04.978Z,11.50
2023-04-20T11:34:33.546Z,11.80
2023-04-20T11:37:05.674Z,12.10
2023-04-20T11:39:35.295Z,12.40
2023-04-20T11:42:03.877Z,12.40
2023-04-20T11:44:31.960Z,12.20
2023-04-20T11:47:01.101Z,12.20
2023-04-20T11:49:31.008Z,12.20
2023-04-20T11:51:59.543Z,12.10
2023-04-20T11:54:29.664Z,12.00
2023-04-20T11:56:59.950Z,12.10
2023-04-20T11:59:28.037Z,12.10
2023-04-20T12:01:56.060Z,12.10
2023-04-20T12:04:24.375Z,12.00
2023-04-20T12:06:52.643Z,12.00
2023-04-20T12:09:20.947Z,11.80
2023-04-20T12:11:49.392Z,11.80
2023-04-20T12:14:19.152Z,11.90
2023-04-20T12:16:47.781Z,12.30
2023-04-20T12:19:16.143Z,12.70
2023-04-20T12:21:44.612Z,12.80
2023-04-20T12:24:13.202Z,12.90
2023-04-20T12:26:41.714Z,12.80
2023-04-20T12:29:10.789Z,12.70
2023-04-20T12:31:40.711Z,12.50
2023-04-20T12:34:09.245Z,12.50
2023-04-20T12:36:37.428Z,12.70
2023-04-20T12:39:06.561Z,13.00
2023-04-20T12:41:36.264Z,13.20
2023-04-20T12:44:07.131Z,13.00
2023-04-20T12:46:45.610Z,13.10
2023-04-20T12:49:13.805Z,13.30
2023-04-20T12:51:41.886Z,13.30
2023-04-20T12:54:10.696Z,13.00
2023-04-20T12:56:39.040Z,12.90
2023-04-20T12:59:07.189Z,12.80
2023-04-20T13:01:35.416Z,12.60
2023-04-20T13:04:06.193Z,12.30
2023-04-20T13:06:34.473Z,12.20
2023-04-20T13:09:04.061Z,12.10
2023-04-20T13:11:32.189Z,11.90
2023-04-20T13:14:00.909Z,11.90
2023-04-20T13:16:29.314Z,12.00
2023-04-20T13:18:59.370Z,12.30
2023-04-20T13:21:28.832Z,12.50
2023-04-20T13:23:57.135Z,12.60
2023-04-20T13:26:25.520Z,12.70
2023-04-20T13:28:54.159Z,12.70
2023-04-20T13:31:22.262Z,12.60
2023-04-20T13:33:54.398Z,12.80
2023-04-20T13:36:24.332Z,13.10
2023-04-20T13:38:55.708Z,13.60
2023-04-20T13:41:24.742Z,13.90
2023-04-20T13:43:53.013Z,14.10
2023-04-20T13:46:21.245Z,13.90
2023-04-20T13:48:49.610Z,14.00
2023-04-20T13:51:18.072Z,13.90
2023-04-20T13:53:48.082Z,14.10
2023-04-20T13:56:18.320Z,14.40
2023-04-20T13:58:46.359Z,14.50
2023-04-20T14:01:15.981Z,14.90
2023-04-20T14:03:45.219Z,15.00
2023-04-20T14:06:13.339Z,14.70
2023-04-20T14:08:41.530Z,14.30
2023-04-20T14:11:09.800Z,14.10
2023-04-20T14:13:39.550Z,13.90
2023-04-20T14:16:10.370Z,13.80
2023-04-20T14:18:39.158Z,13.90
2023-04-20T14:21:07.653Z,14.30
2023-04-20T14:23:35.998Z,14.90
2023-04-20T14:26:04.394Z,15.00
2023-04-20T14:28:33.400Z,14.80
2023-04-20T14:31:04.052Z,15.00
2023-04-20T14:33:38.655Z,15.10
2023-04-20T14:36:07.076Z,14.60
2023-04-20T14:38:35.429Z,14.20
2023-04-20T14:41:03.713Z,14.20
2023-04-20T14:43:32.375Z,14.40
2023-04-20T14:46:00.751Z,14.40
2023-04-20T14:48:30.603Z,14.20
2023-04-20T14:50:58.880Z,13.90
2023-04-20T14:53:26.943Z,13.50
2023-04-20T14:55:55.968Z,13.20
2023-04-20T14:58:24.331Z,12.90
2023-04-20T15:00:55.657Z,12.70
2023-04-20T15:03:23.980Z,12.50
2023-04-20T15:05:53.695Z,12.20
2023-04-20T15:08:21.806Z,12.20
2023-04-20T15:10:51.981Z,12.00
2023-04-20T15:13:20.107Z,11.90
2023-04-20T15:15:49.955Z,11.90
2023-04-20T15:18:19.849Z,11.90
2023-04-20T15:20:53.887Z,11.80
2023-04-20T15:23:22.418Z,11.70
2023-04-20T15:25:50.458Z,11.70
2023-04-20T15:28:18.493Z,11.60
2023-04-20T15:30:47.095Z,11.60
2023-04-20T15:33:15.517Z,11.60
2023-04-20T15:35:46.485Z,11.50
2023-04-20T15:38:16.436Z,11.40
2023-04-20T15:40:44.440Z,11.30
2023-04-20T15:43:12.512Z,11.20
2023-04-20T15:45:41.751Z,11.20
2023-04-20T15:48:10.865Z,11.10
2023-04-20T15:50:38.865Z,11.00
2023-04-20T15:53:07.351Z,11.00
2023-04-20T15:55:39.419Z,11.00
2023-04-20T15:58:07.370Z,11.00
2023-04-20T16:00:35.319Z,10.90
2023-04-20T16:03:03.531Z,10.90
2023-04-20T16:05:32.721Z,10.90
2023-04-20T16:08:00.858Z,10.90
2023-04-20T16:10:28.935Z,10.80
2023-04-20T16:12:58.264Z,10.80
2023-04-20T16:15:26.362Z,10.80
2023-04-20T16:17:54.843Z,10.80
2023-04-20T16:20:23.032Z,10.80
2023-04-20T16:22:51.135Z,10.80
2023-04-20T16:25:23.836Z,10.70
2023-04-20T16:27:52.405Z,10.70
2023-04-20T16:30:21.912Z,10.70
2023-04-20T16:32:50.274Z,10.70
2023-04-20T16:35:18.461Z,10.70
2023-04-20T16:37:46.768Z,10.70
2023-04-20T16:40:14.793Z,10.60
2023-04-20T16:42:42.757Z,10.60
2023-04-20T16:45:10.817Z,10.50
2023-04-20T16:47:40.239Z,10.50
2023-04-20T16:50:09.239Z,10.50
2023-04-20T16:52:37.292Z,10.50
2023-04-20T16:55:05.869Z,10.50
2023-04-20T16:57:33.863Z,10.40
2023-04-20T17:00:01.821Z,10.40
2023-04-20T17:02:32.856Z,10.30
2023-04-20T17:05:02.454Z,10.30
2023-04-20T17:07:30.443Z,10.30
2023-04-20T17:09:58.571Z,10.30
2023-04-20T17:12:26.668Z,10.20
2023-04-20T17:14:55.528Z,10.20
2023-04-20T17:17:23.605Z,10.10
2023-04-20T17:19:51.650Z,10.10
2023-04-20T17:22:21.030Z,10.10
2023-04-20T17:24:49.179Z,10.00
2023-04-20T17:27:17.098Z,10.00
2023-04-20T17:29:45.161Z,10.00
2023-04-20T17:32:13.267Z,10.00
2023-04-20T17:34:44.323Z,10.00
2023-04-20T17:37:12.918Z,9.90
2023-04-20T17:39:42.508Z,9.90
2023-04-20T17:42:10.786Z,9.90
2023-04-20T17:44:39.340Z,9.80
2023-04-20T17:47:09.418Z,9.80
2023-04-20T17:49:37.676Z,9.80
2023-04-20T17:52:06.225Z,9.70
2023-04-20T17:54:34.956Z,9.70
2023-04-20T17:57:04.365Z,9.60
2023-04-20T17:59:32.305Z,9.60
2023-04-20T18:02:00.664Z,9.50
2023-04-20T18:04:29.175Z,9.50
2023-04-20T18:06:57.545Z,9.50
2023-04-20T18:09:26.438Z,9.40
2023-04-20T18:11:54.891Z,9.40
2023-04-20T18:14:24.615Z,9.40
2023-04-20T18:16:55.390Z,9.40
2023-04-20T18:19:23.781Z,9.40
2023-04-20T18:21:52.278Z,9.40
2023-04-20T18:24:20.746Z,9.30
2023-04-20T18:26:48.995Z,9.30
2023-04-20T18:29:17.344Z,9.30
2023-04-20T18:31:47.557Z,9.30
2023-04-20T18:34:17.373Z,9.30
2023-04-20T18:36:46.119Z,9.30
2023-04-20T18:39:15.046Z,9.30
2023-04-20T18:41:43.237Z,9.30
2023-04-20T18:44:11.672Z,9.30
2023-04-20T18:46:42.662Z,9.20
2023-04-20T18:49:12.914Z,9.20
2023-04-20T18:51:41.165Z,9.20
2023-04-20T18:54:09.578Z,9.20
2023-04-20T18:56:38.828Z,9.20
2023-04-20T18:59:08.557Z,9.20
2023-04-20T19:01:40.556Z,9.20
2023-04-20T19:04:09.403Z,9.20
2023-04-20T19:06:39.491Z,9.10
2023-04-20T19:09:09.147Z,9.20
2023-04-20T19:11:37.361Z,9.10
2023-04-20T19:14:05.377Z,9.10
2023-04-20T19:16:34.685Z,9.10
2023-04-20T19:19:03.921Z,9.10
2023-04-20T19:21:34.473Z,9.10
2023-04-20T19:24:04.549Z,9.10
2023-04-20T19:26:32.943Z,9.10
2023-04-20T19:29:01.280Z,9.10
2023-04-20T19:31:36.533Z,9.10
2023-04-20T19:34:05.027Z,9.10
2023-04-20T19:36:33.650Z,9.10
2023-04-20T19:39:04.018Z,9.10
2023-04-20T19:41:33.631Z,9.10
2023-04-20T19:44:04.471Z,9.10
2023-04-20T19:46:33.005Z,9.10
2023-04-20T19:49:01.440Z,9.10
2023-04-20T19:51:29.423Z,9.10
2023-04-20T19:53:59.840Z,9.10
2023-04-20T19:56:29.233Z,9.10
2023-04-20T19:58:57.422Z,9.10
2023-04-20T20:01:26.542Z,9.10
2023-04-20T20:03:54.849Z,9.10
2023-04-20T20:06:23.850Z,9.10
2023-04-20T20:08:52.093Z,9.10
2023-04-20T20:11:22.150Z,9.10
2023-04-20T20:13:51.681Z,9.10
2023-04-20T20:16:19.890Z,9.10
2023-04-20T20:18:50.914Z,9.10
2023-04-20T20:21:18.906Z,9.10
2023-04-20T20:23:47.193Z,9.10
2023-04-20T20:26:15.216Z,9.10
2023-04-20T20:28:43.228Z,9.10
2023-04-20T20:31:12.984Z,9.10
2023-04-20T20:33:42.883Z,9.10
2023-04-20T20:36:10.970Z,9.10
2023-04-20T20:38:40.743Z,9.20
2023-04-20T20:41:09.314Z,9.20
2023-04-20T20:43:37.574Z,9.20
2023-04-20T20:46:05.814Z,9.20
2023-04-20T20:48:35.258Z,9.20
2023-04-20T20:51:03.299Z,9.20
2023-04-20T20:53:31.431Z,9.20
2023-04-20T20:55:59.489Z,9.20
2023-04-20T20:58:27.481Z,9.10
2023-04-20T21:00:55.607Z,9.10
2023-04-20T21:03:23.965Z,9.10
2023-04-20T21:05:53.509Z,9.10
2023-04-20T21:08:21.540Z,9.10
2023-04-20T21:10:49.698Z,9.10
2023-04-20T21:13:18.942Z,9.00
2023-04-20T21:15:46.956Z,9.00
2023-04-20T21:18:14.956Z,9.00
2023-04-20T21:20:42.928Z,9.00
2023-04-20T21:23:12.330Z,9.00
2023-04-20T21:25:40.382Z,9.00
2023-04-20T21:28:08.522Z,9.00
2023-04-20T21:30:36.649Z,9.00
2023-04-20T21:33:06.697Z,9.00
2023-04-20T21:35:34.940Z,9.00
2023-04-20T21:38:04.739Z,9.00
2023-04-20T21:40:34.772Z,9.00
2023-04-20T21:43:02.960Z,9.10
2023-04-20T21:45:31.070Z,9.10
2023-04-20T21:47:59.172Z,9.10
2023-04-20T21:50:28.542Z,9.10
2023-04-20T21:52:56.638Z,9.10
2023-04-20T21:55:24.678Z,9.10
2023-04-20T21:57:54.064Z,9.10
2023-04-20T22:00:22.414Z,9.10
2023-04-20T22:02:50.681Z,9.10
2023-04-20T22:05:18.992Z,9.10
2023-04-20T22:07:47.046Z,9.10
2023-04-20T22:10:15.136Z,9.20
2023-04-20T22:12:43.194Z,9.20
2023-04-20T22:15:14.781Z,9.20
2023-04-20T22:17:45.393Z,9.20
2023-04-20T22:20:15.648Z,9.20
2023-04-20T22:22:43.774Z,9.20
2023-04-20T22:25:11.783Z,9.20
2023-04-20T22:27:39.894Z,9.20
2023-04-20T22:30:09.614Z,9.20
2023-04-20T22:32:39.417Z,9.20
2023-04-20T22:35:08.146Z,9.20
2023-04-20T22:37:36.172Z,9.10
2023-04-20T22:40:05.924Z,9.10
2023-04-20T22:42:34.734Z,9.10
2023-04-20T22:45:02.831Z,9.10
2023-04-20T22:47:30.919Z,9.10
2023-04-20T22:50:00.323Z,9.10
2023-04-20T22:52:28.382Z,9.10
2023-04-20T22:54:56.377Z,9.10
2023-04-20T22:57:24.416Z,9.10
2023-04-20T22:59:52.462Z,9.10
2023-04-20T23:02:20.580Z,9.10
2023-04-20T23:04:48.662Z,9.10
2023-04-20T23:07:19.510Z,9.10
2023-04-20T23:09:48.093Z,9.10
2023-04-20T23:12:16.430Z,9.10
2023-04-20T23:14:44.378Z,9.10
2023-04-20T23:17:12.365Z,9.00
2023-04-20T23:19:41.121Z,9.00
2023-04-20T23:22:09.704Z,9.00
2023-04-20T23:24:39.218Z,8.90
2023-04-20T23:27:07.258Z,8.90
2023-04-20T23:29:35.265Z,8.90
2023-04-20T23:32:03.479Z,8.90
2023-04-20T23:34:31.766Z,8.80
2023-04-20T23:36:59.893Z,8.80
2023-04-20T23:39:27.963Z,8.80
2023-04-20T23:41:57.818Z,8.80
2023-04-20T23:44:25.850Z,8.70
2023-04-20T23:46:53.942Z,8.70
2023-04-20T23:49:21.925Z,8.70
2023-04-20T23:51:49.865Z,8.70
2023-04-20T23:54:17.800Z,8.70
2023-04-20T23:56:45.787Z,8.70
2023-04-20T23:59:15.072Z,8.60
